createdAt,value
2023-04-18T00:00:43.138Z,20.23
2023-04-18T00:03:10.033Z,17.42
2023-04-18T00:05:37.874Z,19.27
2023-04-18T00:08:05.687Z,21.38
2023-04-18T00:10:32.767Z,20.70
2023-04-18T00:13:00.404Z,17.48
2023-04-18T00:15:29.334Z,21.17
2023-04-18T00:18:00.821Z,25.60
2023-04-18T00:20:27.638Z,22.35
2023-04-18T00:22:55.172Z,18.98
2023-04-18T00:25:21.981Z,17.27
2023-04-18T00:27:48.642Z,21.33
2023-04-18T00:30:15.654Z,19.23
2023-04-18T00:32:42.520Z,23.92
2023-04-18T00:35:09.408Z,24.67
2023-04-18T00:37:37.153Z,21.65
2023-04-18T00:40:05.775Z,25.02
2023-04-18T00:42:33.858Z,22.73
2023-04-18T00:45:00.715Z,19.58
2023-04-18T00:47:27.552Z,23.33
2023-04-18T00:49:54.913Z,18.73
2023-04-18T00:52:21.628Z,20.75
2023-04-18T00:54:48.376Z,18.25
2023-04-18T00:57:15.598Z,19.50
2023-04-18T00:59:42.626Z,23.33
2023-04-18T01:02:09.462Z,20.67
2023-04-18T01:04:37.370Z,24.52
2023-04-18T01:07:04.477Z,21.75
2023-04-18T01:09:31.443Z,23.42
2023-04-18T01:11:58.286Z,19.33
2023-04-18T01:14:25.108Z,23.00
2023-04-18T01:16:52.146Z,18.95
2023-04-18T01:19:19.226Z,24.17
2023-04-18T01:21:46.166Z,17.38
2023-04-18T01:24:17.619Z,21.08
2023-04-18T01:26:49.065Z,23.60
2023-04-18T01:29:15.939Z,24.40
2023-04-18T01:31:42.715Z,20.55
2023-04-18T01:34:09.705Z,21.23
2023-04-18T01:36:38.019Z,15.88
2023-04-18T01:39:04.674Z,20.85
2023-04-18T01:41:32.907Z,17.70
2023-04-18T01:43:59.868Z,19.88
2023-04-18T01:46:27.008Z,20.95
2023-04-18T01:48:53.879Z,18.85
2023-04-18T01:51:20.709Z,23.65
2023-04-18T01:53:47.316Z,22.88
2023-04-18T01:56:14.769Z,18.05
2023-04-18T01:58:44.561Z,21.10
2023-04-18T02:01:11.653Z,18.48
2023-04-18T02:03:38.805Z,20.45
2023-04-18T02:06:06.466Z,19.77
2023-04-18T02:08:35.609Z,22.67
2023-04-18T02:11:02.609Z,14.93
2023-04-18T02:13:29.439Z,18.05
2023-04-18T02:15:56.088Z,15.60
2023-04-18T02:18:24.733Z,17.00
2023-04-18T02:20:52.180Z,18.42
2023-04-18T02:23:19.170Z,19.55
2023-04-18T02:25:46.134Z,20.17
2023-04-18T02:28:12.961Z,17.17
2023-04-18T02:30:39.742Z,17.13
2023-04-18T02:33:06.593Z,19.30
2023-04-18T02:35:34.150Z,19.35
2023-04-18T02:38:00.827Z,18.35
2023-04-18T02:40:27.638Z,18.67
2023-04-18T02:42:54.411Z,18.83
2023-04-18T02:45:21.034Z,17.05
2023-04-18T02:47:55.132Z,19.88
2023-04-18T02:50:23.591Z,18.00
2023-04-18T02:52:50.412Z,15.55
2023-04-18T02:55:17.241Z,15.65
2023-04-18T02:57:43.858Z,18.63
2023-04-18T03:00:11.379Z,17.48
2023-04-18T03:02:38.205Z,16.80
2023-04-18T03:05:06.311Z,19.83
2023-04-18T03:07:33.187Z,18.25
2023-04-18T03:09:59.982Z,20.00
2023-04-18T03:12:26.780Z,21.92
2023-04-18T03:14:53.418Z,17.13
2023-04-18T03:17:20.123Z,18.42
2023-04-18T03:19:46.762Z,16.35
2023-04-18T03:22:13.928Z,17.80
2023-04-18T03:24:40.558Z,15.55
2023-04-18T03:27:08.488Z,18.20
2023-04-18T03:29:35.382Z,18.40
2023-04-18T03:32:02.020Z,14.98
2023-04-18T03:34:30.202Z,21.38
2023-04-18T03:36:57.248Z,19.25
2023-04-18T03:39:24.001Z,15.82
2023-04-18T03:41:52.337Z,20.42
2023-04-18T03:44:19.267Z,20.90
2023-04-18T03:46:46.394Z,15.93
2023-04-18T03:49:13.245Z,15.07
2023-04-18T03:51:49.849Z,19.00
2023-04-18T03:54:17.279Z,15.52
2023-04-18T03:56:44.670Z,15.43
2023-04-18T03:59:11.917Z,16.02
2023-04-18T04:01:38.594Z,18.27
2023-04-18T04:04:05.771Z,15.73
2023-04-18T04:06:32.418Z,16.73
2023-04-18T04:08:59.063Z,18.90
2023-04-18T04:11:26.020Z,17.55
2023-04-18T04:13:52.902Z,19.02
2023-04-18T04:16:19.745Z,19.73
2023-04-18T04:18:46.758Z,17.77
2023-04-18T04:21:13.643Z,22.10
2023-04-18T04:23:42.525Z,18.45
2023-04-18T04:26:09.232Z,18.35
2023-04-18T04:28:36.271Z,15.73
2023-04-18T04:31:06.348Z,15.45
2023-04-18T04:33:33.358Z,18.02
2023-04-18T04:36:01.129Z,21.20
2023-04-18T04:38:31.049Z,17.48
2023-04-18T04:40:58.418Z,14.52
2023-04-18T04:43:26.057Z,15.20
2023-04-18T04:45:53.286Z,15.48
2023-04-18T04:48:21.941Z,15.68
2023-04-18T04:50:53.783Z,17.40
2023-04-18T04:53:20.893Z,17.17
2023-04-18T04:55:47.691Z,15.60
2023-04-18T04:58:14.711Z,16.73
2023-04-18T05:00:41.620Z,17.80
2023-04-18T05:03:08.675Z,18.40
2023-04-18T05:05:35.854Z,17.98
2023-04-18T05:08:02.986Z,18.50
2023-04-18T05:10:30.365Z,15.10
2023-04-18T05:12:57.031Z,17.10
2023-04-18T05:15:25.976Z,12.75
2023-04-18T05:17:52.646Z,15.02
2023-04-18T05:20:19.242Z,13.77
2023-04-18T05:22:45.835Z,14.80
2023-04-18T05:25:12.663Z,15.63
2023-04-18T05:27:41.626Z,12.10
2023-04-18T05:30:11.149Z,14.57
2023-04-18T05:32:39.054Z,16.58
2023-04-18T05:35:09.390Z,17.70
2023-04-18T05:37:36.428Z,14.35
2023-04-18T05:40:07.418Z,14.38
2023-04-18T05:42:33.985Z,13.18
2023-04-18T05:45:00.861Z,14.10
2023-04-18T05:47:28.575Z,15.23
2023-04-18T05:49:55.652Z,11.70
2023-04-18T05:52:22.299Z,14.45
2023-04-18T05:54:50.797Z,12.98
2023-04-18T05:57:17.399Z,13.88
2023-04-18T05:59:46.747Z,15.48
2023-04-18T06:02:15.496Z,13.82
2023-04-18T06:04:43.017Z,12.50
2023-04-18T06:07:10.124Z,14.35
2023-04-18T06:09:36.745Z,14.48
2023-04-18T06:12:03.867Z,13.77
2023-04-18T06:14:30.479Z,13.27
2023-04-18T06:16:59.589Z,13.65
2023-04-18T06:19:26.314Z,13.27
2023-04-18T06:21:53.358Z,10.43
2023-04-18T06:24:21.755Z,13.32
2023-04-18T06:26:48.405Z,12.77
2023-04-18T06:29:15.172Z,13.45
2023-04-18T06:31:42.239Z,13.15
2023-04-18T06:34:09.144Z,12.63
2023-04-18T06:36:37.974Z,12.63
2023-04-18T06:39:04.650Z,17.90
2023-04-18T06:41:31.563Z,11.75
2023-04-18T06:44:04.761Z,11.90
2023-04-18T06:46:32.685Z,16.08
2023-04-18T06:49:01.852Z,11.55
2023-04-18T06:51:29.104Z,17.15
2023-04-18T06:53:56.083Z,17.95
2023-04-18T06:56:22.842Z,16.60
2023-04-18T06:58:50.041Z,11.05
2023-04-18T07:01:16.838Z,14.43
2023-04-18T07:03:45.789Z,13.70
2023-04-18T07:06:12.545Z,12.55
2023-04-18T07:08:41.442Z,14.85
2023-04-18T07:11:08.163Z,11.40
2023-04-18T07:13:34.772Z,10.50
2023-04-18T07:16:01.710Z,14.63
2023-04-18T07:18:37.424Z,11.55
2023-04-18T07:21:09.053Z,13.00
2023-04-18T07:23:36.348Z,10.45
2023-04-18T07:26:08.578Z,16.60
2023-04-18T07:28:35.272Z,12.82
2023-04-18T07:31:07.015Z,9.35
2023-04-18T07:33:34.913Z,13.63
2023-04-18T07:36:01.726Z,10.95
2023-04-18T07:38:31.700Z,12.57
2023-04-18T07:41:00.179Z,11.02
2023-04-18T07:43:27.025Z,10.25
2023-04-18T07:45:53.965Z,13.75
2023-04-18T07:48:25.458Z,15.48
2023-04-18T07:50:52.233Z,12.02
2023-04-18T07:53:18.854Z,10.60
2023-04-18T07:55:47.995Z,13.57
2023-04-18T07:58:16.253Z,12.02
2023-04-18T08:00:44.617Z,14.13
2023-04-18T08:03:13.662Z,12.50
2023-04-18T08:05:41.693Z,10.60
2023-04-18T08:08:10.400Z,13.68
2023-04-18T08:10:38.645Z,12.43
2023-04-18T08:13:06.582Z,13.30
2023-04-18T08:15:33.234Z,13.63
2023-04-18T08:18:01.314Z,17.65
2023-04-18T08:20:28.282Z,13.45
2023-04-18T08:25:24.696Z,16.02
2023-04-18T08:27:53.093Z,15.50
2023-04-18T08:30:19.765Z,13.10
2023-04-18T08:32:46.490Z,11.77
2023-04-18T08:35:13.183Z,17.67
2023-04-18T08:37:39.838Z,13.45
2023-04-18T08:40:07.420Z,13.77
2023-04-18T08:42:37.370Z,18.92
2023-04-18T08:45:05.408Z,15.05
2023-04-18T08:47:37.076Z,15.50
2023-04-18T08:50:03.950Z,16.40
2023-04-18T08:52:34.202Z,15.25
2023-04-18T08:55:04.115Z,14.10
2023-04-18T08:57:31.757Z,12.75
2023-04-18T09:00:06.685Z,14.77
2023-04-18T09:02:45.170Z,12.07
2023-04-18T09:05:18.784Z,14.18
2023-04-18T09:07:48.288Z,19.38
2023-04-18T09:10:34.791Z,19.58
2023-04-18T09:13:05.500Z,13.50
2023-04-18T09:15:34.361Z,16.90
2023-04-18T09:18:03.050Z,15.63
2023-04-18T09:20:34.985Z,14.38
2023-04-18T09:23:16.091Z,13.90
2023-04-18T09:25:47.024Z,14.68
2023-04-18T09:28:33.380Z,14.75
2023-04-18T09:31:17.522Z,15.23
2023-04-18T09:33:54.380Z,16.65
2023-04-18T09:36:24.132Z,14.60
2023-04-18T09:38:54.630Z,13.52
2023-04-18T09:41:24.006Z,14.32
2023-04-18T09:43:52.117Z,13.80
2023-04-18T09:46:18.878Z,14.10
2023-04-18T09:48:45.543Z,13.98
2023-04-18T09:51:15.619Z,11.82
2023-04-18T09:53:52.886Z,13.55
2023-04-18T09:56:27.500Z,11.68
2023-04-18T09:59:07.119Z,10.50
2023-04-18T10:01:34.657Z,11.95
2023-04-18T10:04:03.532Z,11.18
2023-04-18T10:06:33.358Z,9.18
2023-04-18T10:09:02.916Z,12.63
2023-04-18T10:11:33.775Z,12.18
2023-04-18T10:14:07.622Z,13.35
2023-04-18T10:16:36.599Z,10.75
2023-04-18T10:19:26.388Z,10.25
2023-04-18T10:21:54.563Z,11.20
2023-04-18T10:24:53.792Z,14.52
2023-04-18T10:27:50.130Z,11.13
2023-04-18T10:30:17.351Z,14.10
2023-04-18T10:32:47.031Z,10.05
2023-04-18T10:35:13.692Z,16.30
2023-04-18T10:37:59.355Z,11.88
2023-04-18T10:40:33.864Z,13.63
2023-04-18T10:43:02.970Z,14.27
2023-04-18T10:45:32.377Z,13.88
2023-04-18T10:48:29.861Z,10.73
2023-04-18T10:51:18.648Z,12.45
2023-04-18T10:53:59.444Z,12.23
2023-04-18T10:56:27.893Z,11.95
2023-04-18T10:58:54.786Z,12.10
2023-04-18T11:01:32.364Z,16.52
2023-04-18T11:04:00.143Z,16.85
2023-04-18T11:06:27.637Z,15.80
2023-04-18T11:09:14.120Z,13.20
2023-04-18T11:11:43.175Z,16.55
2023-04-18T11:14:10.569Z,14.32
2023-04-18T11:16:37.411Z,13.60
2023-04-18T11:19:20.806Z,14.75
2023-04-18T11:21:47.415Z,13.02
2023-04-18T11:24:23.689Z,12.30
2023-04-18T11:26:50.523Z,13.90
2023-04-18T11:29:20.181Z,15.52
2023-04-18T11:31:55.845Z,13.20
2023-04-18T11:34:32.208Z,14.75
2023-04-18T11:37:00.958Z,11.48
2023-04-18T11:39:31.748Z,13.77
2023-04-18T11:41:59.475Z,12.85
2023-04-18T11:44:26.637Z,8.23
2023-04-18T11:46:53.708Z,9.63
2023-04-18T11:49:31.655Z,8.60
2023-04-18T11:52:00.154Z,8.82
2023-04-18T11:54:43.306Z,9.02
2023-04-18T11:57:25.358Z,10.02
2023-04-18T11:59:54.104Z,10.80
2023-04-18T12:02:24.578Z,8.23
2023-04-18T12:04:55.157Z,7.55
2023-04-18T12:07:33.713Z,11.35
2023-04-18T12:10:00.955Z,7.55
2023-04-18T12:12:31.777Z,8.93
2023-04-18T12:15:08.812Z,10.45
2023-04-18T12:17:37.683Z,8.18
2023-04-18T12:20:10.249Z,9.07
2023-04-18T12:22:46.814Z,8.73
2023-04-18T12:25:27.077Z,9.10
2023-04-18T12:27:54.069Z,7.57
2023-04-18T12:30:22.445Z,8.02
2023-04-18T12:32:50.914Z,6.28
2023-04-18T12:35:19.189Z,7.75
2023-04-18T12:37:47.186Z,7.35
2023-04-18T12:40:14.498Z,9.27
2023-04-18T12:42:44.005Z,7.55
2023-04-18T12:45:13.175Z,6.18
2023-04-18T12:47:42.035Z,8.35
2023-04-18T12:50:11.537Z,7.35
2023-04-18T12:52:42.269Z,6.57
2023-04-18T12:55:11.102Z,4.78
2023-04-18T12:57:39.714Z,7.18
2023-04-18T13:00:12.810Z,5.57
2023-04-18T13:02:41.689Z,8.57
2023-04-18T13:05:12.083Z,6.85
2023-04-18T13:07:42.403Z,5.45
2023-04-18T13:10:11.746Z,4.78
2023-04-18T13:12:39.867Z,7.35
2023-04-18T13:15:07.531Z,5.80
2023-04-18T13:17:36.692Z,8.45
2023-04-18T13:20:08.430Z,5.32
2023-04-18T13:22:35.984Z,5.97
2023-04-18T13:25:03.348Z,4.95
2023-04-18T13:27:30.141Z,5.35
2023-04-18T13:29:57.205Z,7.45
2023-04-18T13:32:24.582Z,5.18
2023-04-18T13:34:51.231Z,7.20
2023-04-18T13:37:17.851Z,9.73
2023-04-18T13:39:44.526Z,5.95
2023-04-18T13:42:11.139Z,4.85
2023-04-18T13:44:38.711Z,5.60
2023-04-18T13:47:07.961Z,6.40
2023-04-18T13:49:36.261Z,6.43
2023-04-18T13:52:04.208Z,5.85
2023-04-18T13:54:32.188Z,5.88
2023-04-18T13:57:04.344Z,5.18
2023-04-18T13:59:32.377Z,5.00
2023-04-18T14:02:01.170Z,4.55
2023-04-18T14:04:28.214Z,7.05
2023-04-18T14:06:56.990Z,6.95
2023-04-18T14:09:23.905Z,8.63
2023-04-18T14:11:51.259Z,3.72
2023-04-18T14:14:17.917Z,6.78
2023-04-18T14:16:45.204Z,6.85
2023-04-18T14:19:12.192Z,5.35
2023-04-18T14:21:38.929Z,8.82
2023-04-18T14:24:06.754Z,5.93
2023-04-18T14:26:33.318Z,4.43
2023-04-18T14:29:00.834Z,5.18
2023-04-18T14:31:30.812Z,7.30
2023-04-18T14:33:57.422Z,7.18
2023-04-18T14:36:24.195Z,4.95
2023-04-18T14:38:51.939Z,6.25
2023-04-18T14:41:18.531Z,6.10
2023-04-18T14:43:45.193Z,5.53
2023-04-18T14:46:13.653Z,5.90
2023-04-18T14:48:40.515Z,4.45
2023-04-18T14:51:07.638Z,5.95
2023-04-18T14:53:34.485Z,5.50
2023-04-18T14:56:01.079Z,6.43
2023-04-18T14:58:27.616Z,6.85
2023-04-18T15:00:54.240Z,6.28
2023-04-18T15:03:20.952Z,7.13
2023-04-18T15:05:48.837Z,4.50
2023-04-18T15:08:16.118Z,5.28
2023-04-18T15:10:42.819Z,5.57
2023-04-18T15:13:10.914Z,4.88
2023-04-18T15:15:40.239Z,5.38
2023-04-18T15:18:08.264Z,3.95
2023-04-18T15:20:36.039Z,4.28
2023-04-18T15:23:02.857Z,5.90
2023-04-18T15:25:30.412Z,3.88
2023-04-18T15:27:59.528Z,6.25
2023-04-18T15:30:26.183Z,4.05
2023-04-18T15:32:53.873Z,3.47
2023-04-18T15:35:22.658Z,4.43
2023-04-18T15:37:49.340Z,4.82
2023-04-18T15:40:16.431Z,5.38
2023-04-18T15:42:43.700Z,4.15
2023-04-18T15:45:11.606Z,5.53
2023-04-18T15:47:38.818Z,6.78
2023-04-18T15:50:06.965Z,4.90
2023-04-18T15:52:33.734Z,5.18
2023-04-18T15:55:00.920Z,3.85
2023-04-18T15:57:29.609Z,10.57
2023-04-18T15:59:56.659Z,4.60
2023-04-18T16:02:23.417Z,5.20
2023-04-18T16:04:50.229Z,5.05
2023-04-18T16:07:17.100Z,6.45
2023-04-18T16:09:45.532Z,4.13
2023-04-18T16:12:12.193Z,5.38
2023-04-18T16:14:38.789Z,7.00
2023-04-18T16:17:06.968Z,5.97
2023-04-18T16:19:36.191Z,4.90
2023-04-18T16:22:03.065Z,4.95
2023-04-18T16:24:31.082Z,7.60
2023-04-18T16:26:58.473Z,5.55
2023-04-18T16:29:25.318Z,5.18
2023-04-18T16:31:52.137Z,5.40
2023-04-18T16:34:18.746Z,4.93
2023-04-18T16:36:45.388Z,5.07
2023-04-18T16:39:12.150Z,4.10
2023-04-18T16:41:38.783Z,5.03
2023-04-18T16:44:05.383Z,4.07
2023-04-18T16:46:32.356Z,5.35
2023-04-18T16:49:01.342Z,4.35
2023-04-18T16:51:28.784Z,4.97
2023-04-18T16:53:55.651Z,7.30
2023-04-18T16:56:22.206Z,6.45
2023-04-18T16:58:48.773Z,3.78
2023-04-18T17:01:16.889Z,3.70
2023-04-18T17:03:43.657Z,3.80
2023-04-18T17:06:10.308Z,7.10
2023-04-18T17:08:37.016Z,3.10
2023-04-18T17:11:05.685Z,3.10
2023-04-18T17:13:32.352Z,2.83
2023-04-18T17:15:59.004Z,3.72
2023-04-18T17:18:25.756Z,3.90
2023-04-18T17:20:52.654Z,4.55
2023-04-18T17:23:19.450Z,4.85
2023-04-18T17:25:47.286Z,4.47
2023-04-18T17:28:13.941Z,5.75
2023-04-18T17:30:41.814Z,5.03
2023-04-18T17:33:10.154Z,9.50
2023-04-18T17:35:36.934Z,4.50
2023-04-18T17:38:03.736Z,6.40
2023-04-18T17:40:30.427Z,5.90
2023-04-18T17:42:57.059Z,4.82
2023-04-18T17:45:24.312Z,7.32
2023-04-18T17:47:51.181Z,9.15
2023-04-18T17:50:19.128Z,7.55
2023-04-18T17:52:46.400Z,7.15
2023-04-18T17:55:13.305Z,6.13
2023-04-18T17:57:39.925Z,8.48
2023-04-18T18:00:10.559Z,9.13
2023-04-18T18:02:37.628Z,6.93
2023-04-18T18:05:06.419Z,8.32
2023-04-18T18:07:38.693Z,6.70
2023-04-18T18:10:10.872Z,6.57
2023-04-18T18:12:38.054Z,8.68
2023-04-18T18:15:05.894Z,7.47
2023-04-18T18:17:32.510Z,6.55
2023-04-18T18:19:59.100Z,7.40
2023-04-18T18:22:26.144Z,8.05
2023-04-18T18:24:52.886Z,7.60
2023-04-18T18:27:20.297Z,6.15
2023-04-18T18:29:47.982Z,9.27
2023-04-18T18:32:14.612Z,8.73
2023-04-18T18:34:41.258Z,7.78
2023-04-18T18:37:08.035Z,9.73
2023-04-18T18:39:36.644Z,7.85
2023-04-18T18:42:03.703Z,10.10
2023-04-18T18:44:30.608Z,9.18
2023-04-18T18:46:58.687Z,7.22
2023-04-18T18:49:31.149Z,9.77
2023-04-18T18:51:57.765Z,8.35
2023-04-18T18:54:27.363Z,8.82
2023-04-18T18:56:53.945Z,13.38
2023-04-18T18:59:20.757Z,8.25
2023-04-18T19:01:47.605Z,12.18
2023-04-18T19:04:14.400Z,10.63
2023-04-18T19:06:41.830Z,11.98
2023-04-18T19:09:08.448Z,7.10
2023-04-18T19:11:35.091Z,8.48
2023-04-18T19:14:01.757Z,6.80
2023-04-18T19:16:30.098Z,8.57
2023-04-18T19:18:56.890Z,11.05
2023-04-18T19:21:23.557Z,10.27
2023-04-18T19:23:51.581Z,11.25
2023-04-18T19:26:18.503Z,13.48
2023-04-18T19:28:45.249Z,10.73
2023-04-18T19:31:11.996Z,10.32
2023-04-18T19:33:42.464Z,8.13
2023-04-18T19:36:10.814Z,8.35
2023-04-18T19:38:37.461Z,9.35
2023-04-18T19:41:04.307Z,9.80
2023-04-18T19:43:30.888Z,9.57
2023-04-18T19:45:57.699Z,11.23
2023-04-18T19:48:24.260Z,11.07
2023-04-18T19:50:52.749Z,8.98
2023-04-18T19:53:20.296Z,8.65
2023-04-18T19:55:46.887Z,9.07
2023-04-18T19:58:44.522Z,9.52
2023-04-18T20:01:15.829Z,8.23
2023-04-18T20:03:45.079Z,7.90
2023-04-18T20:06:12.247Z,8.77
2023-04-18T20:08:48.407Z,7.80
2023-04-18T20:11:15.036Z,9.15
2023-04-18T20:13:41.718Z,10.52
2023-04-18T20:16:09.207Z,12.27
2023-04-18T20:18:37.742Z,8.15
2023-04-18T20:21:07.104Z,8.80
2023-04-18T20:23:37.460Z,10.02
2023-04-18T20:26:04.567Z,12.35
2023-04-18T20:28:31.721Z,11.50
2023-04-18T20:30:58.372Z,11.40
2023-04-18T20:33:25.036Z,7.88
2023-04-18T20:35:53.600Z,7.93
2023-04-18T20:38:25.850Z,8.88
2023-04-18T20:40:53.234Z,9.55
2023-04-18T20:43:20.179Z,12.43
2023-04-18T20:45:50.815Z,9.10
2023-04-18T20:48:18.072Z,10.40
2023-04-18T20:50:51.448Z,10.23
2023-04-18T20:53:22.261Z,8.93
2023-04-18T20:55:48.938Z,10.10
2023-04-18T20:58:15.795Z,12.88
2023-04-18T21:00:43.570Z,9.57
2023-04-18T21:03:12.580Z,8.82
2023-04-18T21:05:39.289Z,12.15
2023-04-18T21:08:06.074Z,10.93
2023-04-18T21:10:32.731Z,8.65
2023-04-18T21:12:59.351Z,10.70
2023-04-18T21:15:25.964Z,8.52
2023-04-18T21:17:52.847Z,12.30
2023-04-18T21:20:19.836Z,10.68
2023-04-18T21:22:46.393Z,8.90
2023-04-18T21:25:13.267Z,9.23
2023-04-18T21:27:39.876Z,7.97
2023-04-18T21:30:07.083Z,13.68
2023-04-18T21:32:33.820Z,10.48
2023-04-18T21:35:01.439Z,8.25
2023-04-18T21:37:28.139Z,8.10
2023-04-18T21:39:54.760Z,7.82
2023-04-18T21:42:21.340Z,9.32
2023-04-18T21:44:47.908Z,10.60
2023-04-18T21:47:14.534Z,7.15
2023-04-18T21:49:42.427Z,7.22
2023-04-18T21:52:09.190Z,8.35
2023-04-18T21:54:35.783Z,8.00
2023-04-18T21:57:02.746Z,9.73
2023-04-18T21:59:29.739Z,8.57
2023-04-18T22:01:56.362Z,11.30
2023-04-18T22:04:26.144Z,8.57
2023-04-18T22:06:56.706Z,9.27
2023-04-18T22:09:23.642Z,7.35
2023-04-18T22:11:56.516Z,9.00
2023-04-18T22:14:24.771Z,8.00
2023-04-18T22:16:51.530Z,9.02
2023-04-18T22:19:19.134Z,8.43
2023-04-18T22:21:46.018Z,8.73
2023-04-18T22:24:12.767Z,9.68
2023-04-18T22:26:40.262Z,7.95
2023-04-18T22:29:06.808Z,7.50
2023-04-18T22:31:33.421Z,7.55
2023-04-18T22:34:00.030Z,6.85
2023-04-18T22:36:27.519Z,7.70
2023-04-18T22:38:54.147Z,7.80
2023-04-18T22:41:20.744Z,11.95
2023-04-18T22:43:47.342Z,13.85
2023-04-18T22:46:13.965Z,8.90
2023-04-18T22:48:40.780Z,7.57
2023-04-18T22:51:07.477Z,8.70
2023-04-18T22:53:34.134Z,6.35
2023-04-18T22:56:00.785Z,9.25
2023-04-18T22:58:27.373Z,8.50
2023-04-18T23:00:53.991Z,9.35
2023-04-18T23:03:20.806Z,8.30
2023-04-18T23:05:47.469Z,8.48
2023-04-18T23:08:14.106Z,9.65
2023-04-18T23:10:40.726Z,8.20
2023-04-18T23:13:07.385Z,8.65
2023-04-18T23:15:33.969Z,8.13
2023-04-18T23:18:00.727Z,10.63
2023-04-18T23:20:27.433Z,5.32
2023-04-18T23:22:55.283Z,9.20
2023-04-18T23:25:21.888Z,7.93
2023-04-18T23:27:48.504Z,9.07
2023-04-18T23:30:15.219Z,9.43
2023-04-18T23:32:41.935Z,7.85
2023-04-18T23:35:09.068Z,7.75
2023-04-18T23:37:35.625Z,9.07
2023-04-18T23:40:05.008Z,6.95
2023-04-18T23:42:34.539Z,8.07
2023-04-18T23:45:01.439Z,9.18
2023-04-18T23:47:27.994Z,8.40
2023-04-18T23:49:54.739Z,7.35
2023-04-18T23:52:21.563Z,7.85
2023-04-18T23:54:48.267Z,8.35
2023-04-18T23:57:14.939Z,6.53
2023-04-18T23:59:41.569Z,8.48
